Time;durP1;ratioP1;P1;durP2;ratioP2;P2;SDS_P1;SDS_P2;PMS_P1;PMS_P2;Temp;Humidity;BMP_temperature;BMP_pressure;BME280_temperature;BME280_humidity;BME280_pressure;Samples;Min_cycle;Max_cycle;Signal;HPM_P1;HPM_P2
2023/08/27 00:00:13;;;;;;;7.30;3.78;;;18.60;1.00;;;;;;5026663;28;20040;-79
2023/08/27 00:02:39;;;;;;;7.32;3.78;;;18.90;1.00;;;;;;5007689;28;20045;-79
2023/08/27 00:05:07;;;;;;;7.18;3.30;;;19.10;1.00;;;;;;5030532;28;20558;-79
2023/08/27 00:07:34;;;;;;;6.82;3.38;;;19.10;1.00;;;;;;5008590;28;20037;-79
2023/08/27 00:10:00;;;;;;;6.22;3.38;;;18.00;1.00;;;;;;5029493;28;20091;-79
2023/08/27 00:12:27;;;;;;;6.22;3.60;;;19.10;1.00;;;;;;5024860;28;20045;-78
2023/08/27 00:14:53;;;;;;;5.68;3.22;;;17.90;1.00;;;;;;5008287;28;20033;-79
2023/08/27 00:17:19;;;;;;;6.10;3.38;;;18.10;1.00;;;;;;5026488;28;20120;-79
2023/08/27 00:19:45;;;;;;;6.65;3.60;;;18.10;1.00;;;;;;5029317;28;20037;-79
2023/08/27 00:22:11;;;;;;;6.13;3.70;;;18.60;1.00;;;;;;5023288;28;20037;-79
2023/08/27 00:24:36;;;;;;;6.95;4.15;;;18.70;1.00;;;;;;5019958;28;20045;-79
2023/08/27 00:27:03;;;;;;;5.60;3.63;;;18.10;1.00;;;;;;5018572;28;20041;-79
2023/08/27 00:29:29;;;;;;;6.18;3.38;;;18.90;1.00;;;;;;5016329;28;20458;-79
2023/08/27 00:31:55;;;;;;;5.45;3.58;;;18.10;1.00;;;;;;5019663;28;20057;-79
2023/08/27 00:34:21;;;;;;;7.57;3.63;;;18.60;1.00;;;;;;5008470;28;20048;-79
2023/08/27 00:36:46;;;;;;;6.85;3.92;;;18.50;1.00;;;;;;5029348;28;20033;-79
2023/08/27 00:39:12;;;;;;;7.47;4.50;;;18.20;1.00;;;;;;5009162;28;20037;-79
2023/08/27 00:41:38;;;;;;;6.80;4.20;;;19.80;1.00;;;;;;5025994;28;20048;-79
2023/08/27 00:44:04;;;;;;;6.72;4.18;;;18.50;1.00;;;;;;5027437;28;20034;-79
2023/08/27 00:46:29;;;;;;;6.13;4.20;;;18.80;1.00;;;;;;5023871;28;20092;-79
2023/08/27 00:48:55;;;;;;;7.30;4.00;;;18.80;1.00;;;;;;5030124;28;20041;-79
2023/08/27 00:51:21;;;;;;;7.05;4.20;;;18.60;1.00;;;;;;5032911;28;20042;-79
2023/08/27 00:53:47;;;;;;;7.22;3.75;;;18.50;1.00;;;;;;5025089;28;20038;-79
2023/08/27 00:56:12;;;;;;;7.88;3.75;;;18.00;1.00;;;;;;5030569;28;20041;-79
2023/08/27 00:58:39;;;;;;;6.22;3.20;;;17.70;1.00;;;;;;5016788;28;20423;-79
2023/08/27 01:01:05;;;;;;;5.65;3.20;;;18.10;1.00;;;;;;5032699;28;20037;-79
2023/08/27 01:03:32;;;;;;;7.13;3.45;;;18.40;1.00;;;;;;5008210;28;20175;-79
2023/08/27 01:05:57;;;;;;;6.07;3.10;;;18.00;1.00;;;;;;5011776;28;20037;-79
2023/08/27 01:08:42;;;;;;;6.28;3.85;;;18.60;1.00;;;;;;5030118;28;20399;-79
2023/08/27 01:11:20;;;;;;;6.57;3.42;;;17.70;1.00;;;;;;5031111;28;20041;-79
2023/08/27 01:14:16;;;;;;;7.43;4.53;;;18.70;1.00;;;;;;5032333;28;20045;-79
2023/08/27 01:16:44;;;;;;;7.25;3.90;;;18.40;1.00;;;;;;5036930;28;20442;-79
2023/08/27 01:19:14;;;;;;;7.82;3.50;;;17.60;1.00;;;;;;5017151;28;20042;-79
2023/08/27 01:21:44;;;;;;;6.70;3.70;;;17.60;1.00;;;;;;5032132;28;20097;-79
2023/08/27 01:24:10;;;;;;;5.80;3.53;;;17.50;1.00;;;;;;5029565;28;20095;-79
2023/08/27 01:26:52;;;;;;;6.60;4.25;;;17.90;1.00;;;;;;5030510;28;20095;-79
2023/08/27 01:29:33;;;;;;;7.20;4.30;;;18.40;1.00;;;;;;5025919;28;20058;-79
2023/08/27 01:32:08;;;;;;;6.90;4.40;;;19.00;1.00;;;;;;5031047;28;20037;-78
2023/08/27 01:34:35;;;;;;;9.13;5.03;;;18.40;1.00;;;;;;5003090;28;20049;-79
2023/08/27 01:37:03;;;;;;;6.68;4.25;;;18.30;1.00;;;;;;5032538;28;20033;-79
2023/08/27 01:39:29;;;;;;;7.47;4.53;;;18.60;1.00;;;;;;5032299;28;20172;-79
2023/08/27 01:41:55;;;;;;;8.10;4.60;;;18.70;1.00;;;;;;5032952;28;20071;-79
2023/08/27 01:44:21;;;;;;;6.53;4.50;;;18.90;1.00;;;;;;5014279;28;20114;-79
2023/08/27 01:46:46;;;;;;;6.65;4.75;;;18.40;1.00;;;;;;5027679;28;20030;-79
2023/08/27 01:49:12;;;;;;;7.95;4.97;;;18.70;1.00;;;;;;5014187;28;20037;-79
2023/08/27 01:51:38;;;;;;;7.80;4.35;;;17.80;1.00;;;;;;5030726;28;20045;-79
2023/08/27 01:54:05;;;;;;;7.53;4.95;;;18.90;1.00;;;;;;5028493;28;20037;-78
2023/08/27 01:56:30;;;;;;;6.53;4.20;;;18.30;1.00;;;;;;5029068;28;20045;-79
2023/08/27 01:58:56;;;;;;;6.68;4.60;;;18.60;1.00;;;;;;5024733;28;20577;-79
2023/08/27 02:01:22;;;;;;;6.70;4.60;;;18.40;1.00;;;;;;5028074;28;20514;-78
2023/08/27 02:03:47;;;;;;;7.13;4.88;;;18.90;1.00;;;;;;5031107;28;20037;-78
2023/08/27 02:06:13;;;;;;;8.68;4.93;;;18.30;1.00;;;;;;5024234;28;20697;-78
2023/08/27 02:08:39;;;;;;;6.93;4.50;;;18.80;1.00;;;;;;5022656;28;20403;-78
2023/08/27 02:11:04;;;;;;;7.70;5.25;;;18.60;1.00;;;;;;5021903;28;20033;-78
2023/08/27 02:13:30;;;;;;;6.70;4.75;;;18.50;1.00;;;;;;5019755;28;20100;-78
2023/08/27 02:15:56;;;;;;;6.75;4.90;;;18.60;1.00;;;;;;5008046;28;20137;-78
2023/08/27 02:18:21;;;;;;;7.05;4.80;;;17.60;1.00;;;;;;5027134;28;20055;-78
2023/08/27 02:20:47;;;;;;;6.80;4.68;;;17.70;1.00;;;;;;5021838;28;20041;-78
2023/08/27 02:23:13;;;;;;;7.85;4.85;;;18.10;1.00;;;;;;5022535;28;20048;-78
2023/08/27 02:25:38;;;;;;;7.40;4.85;;;17.60;1.00;;;;;;5023494;28;20052;-78
2023/08/27 02:28:04;;;;;;;6.70;4.88;;;18.40;1.00;;;;;;5017553;28;20045;-78
2023/08/27 02:30:30;;;;;;;7.82;5.10;;;17.60;1.00;;;;;;5023790;28;20419;-78
2023/08/27 02:32:56;;;;;;;9.10;5.60;;;18.70;1.00;;;;;;5013610;28;20029;-78
2023/08/27 02:35:21;;;;;;;8.57;5.07;;;18.40;1.00;;;;;;5008592;28;20069;-78
2023/08/27 02:37:47;;;;;;;9.07;4.80;;;18.30;1.00;;;;;;5009811;28;20037;-78
2023/08/27 02:40:13;;;;;;;6.53;4.82;;;17.80;1.00;;;;;;4999489;28;20547;-78
2023/08/27 02:42:39;;;;;;;7.70;5.18;;;18.20;1.00;;;;;;5001372;28;20604;-78
2023/08/27 02:45:06;;;;;;;6.10;4.45;;;18.40;1.00;;;;;;5023769;28;20045;-78
2023/08/27 02:47:31;;;;;;;7.57;4.82;;;18.40;1.00;;;;;;5025184;28;20045;-78
2023/08/27 02:49:57;;;;;;;9.95;5.35;;;17.70;1.00;;;;;;5024731;28;20137;-78
2023/08/27 02:52:23;;;;;;;8.45;4.70;;;17.70;1.00;;;;;;5007232;28;20033;-78
2023/08/27 02:54:48;;;;;;;5.85;4.15;;;18.50;1.00;;;;;;5008865;28;20033;-78
2023/08/27 02:57:14;;;;;;;7.05;4.78;;;18.20;1.00;;;;;;5018123;28;20029;-78
2023/08/27 02:59:40;;;;;;;6.57;4.68;;;18.30;1.00;;;;;;5009114;28;20040;-78
2023/08/27 03:02:05;;;;;;;8.63;4.55;;;18.30;1.00;;;;;;5025450;28;20099;-78
2023/08/27 03:04:31;;;;;;;8.48;4.35;;;17.70;1.00;;;;;;5026934;28;20029;-78
2023/08/27 03:06:57;;;;;;;6.50;4.32;;;18.70;1.00;;;;;;5006645;28;20033;-78
2023/08/27 03:09:22;;;;;;;6.75;4.50;;;18.30;1.00;;;;;;5023080;28;20098;-78
2023/08/27 03:11:48;;;;;;;6.90;4.43;;;17.70;1.00;;;;;;5014482;28;20500;-78
2023/08/27 03:14:14;;;;;;;6.95;4.53;;;18.20;1.00;;;;;;5007237;28;20040;-78
2023/08/27 03:16:40;;;;;;;7.97;4.78;;;17.40;1.00;;;;;;5018359;28;20045;-78
2023/08/27 03:19:05;;;;;;;6.85;4.35;;;17.30;1.00;;;;;;5022331;28;20038;-78
2023/08/27 03:21:31;;;;;;;6.90;4.57;;;18.70;1.00;;;;;;5022346;28;20038;-78
2023/08/27 03:23:57;;;;;;;7.50;4.60;;;17.80;1.00;;;;;;5024973;28;20049;-78
2023/08/27 03:26:23;;;;;;;7.28;4.80;;;17.80;1.00;;;;;;5022321;28;20041;-78
2023/08/27 03:28:48;;;;;;;6.50;4.47;;;17.70;1.00;;;;;;5018552;28;20041;-78
2023/08/27 03:31:14;;;;;;;7.43;4.55;;;18.40;1.00;;;;;;5027107;28;20499;-78
2023/08/27 03:33:41;;;;;;;7.38;4.65;;;18.40;1.00;;;;;;5028536;28;20500;-78
2023/08/27 03:36:07;;;;;;;7.65;4.88;;;17.40;1.00;;;;;;5010774;28;20029;-78
2023/08/27 03:38:32;;;;;;;6.32;4.60;;;17.50;1.00;;;;;;5009558;28;20157;-78
2023/08/27 03:40:58;;;;;;;7.10;4.82;;;17.50;1.00;;;;;;5027403;28;20116;-78
2023/08/27 03:43:24;;;;;;;6.60;4.88;;;17.70;1.00;;;;;;5008832;28;20034;-78
2023/08/27 03:45:50;;;;;;;7.57;4.68;;;17.90;1.00;;;;;;5023141;28;20076;-78
2023/08/27 03:48:15;;;;;;;9.23;4.88;;;17.60;1.00;;;;;;5024685;28;20073;-78
2023/08/27 03:50:41;;;;;;;7.20;4.78;;;17.80;1.00;;;;;;5015999;28;20529;-78
2023/08/27 03:53:07;;;;;;;6.97;4.78;;;18.70;1.00;;;;;;5026142;28;20456;-78
2023/08/27 03:55:40;;;;;;;7.82;5.10;;;18.00;1.00;;;;;;5021686;28;20034;-78
2023/08/27 03:58:07;;;;;;;7.03;4.88;;;18.10;1.00;;;;;;5028138;28;20037;-78
2023/08/27 04:00:33;;;;;;;8.27;4.80;;;17.60;1.00;;;;;;5006238;28;20494;-78
2023/08/27 04:03:00;;;;;;;7.43;5.20;;;18.30;1.00;;;;;;5009625;28;20049;-78
2023/08/27 04:05:26;;;;;;;6.90;4.57;;;17.60;1.00;;;;;;5027357;28;20069;-78
2023/08/27 04:07:51;;;;;;;8.20;4.75;;;18.60;1.00;;;;;;5019633;28;20423;-79
2023/08/27 04:10:17;;;;;;;6.95;5.05;;;17.50;1.00;;;;;;5005348;28;20128;-78
2023/08/27 04:12:43;;;;;;;8.27;5.22;;;18.50;4.70;;;;;;5009114;28;20100;-78
2023/08/27 04:15:09;;;;;;;8.23;4.78;;;17.70;12.10;;;;;;5022547;28;20034;-78
2023/08/27 04:17:35;;;;;;;7.65;4.88;;;18.60;18.10;;;;;;5018193;28;20125;-78
2023/08/27 04:20:01;;;;;;;7.57;5.55;;;18.60;24.90;;;;;;5021541;28;20054;-78
2023/08/27 04:22:27;;;;;;;8.52;5.20;;;18.60;31.50;;;;;;5029345;28;20053;-78
2023/08/27 04:24:54;;;;;;;7.25;5.05;;;18.20;39.90;;;;;;5006992;28;20064;-78
2023/08/27 04:27:20;;;;;;;7.43;5.03;;;17.80;49.00;;;;;;5014083;28;20048;-80
2023/08/27 04:29:46;;;;;;;9.35;5.75;;;17.80;55.50;;;;;;5013363;28;20138;-78
2023/08/27 04:32:12;;;;;;;7.72;5.25;;;18.50;62.00;;;;;;5022928;28;20435;-78
2023/08/27 04:34:38;;;;;;;10.95;5.93;;;18.40;69.60;;;;;;5021474;28;20040;-78
2023/08/27 04:37:03;;;;;;;8.43;5.35;;;18.60;74.80;;;;;;5008769;28;20033;-78
2023/08/27 04:39:30;;;;;;;7.90;5.57;;;18.70;79.30;;;;;;4999885;28;20038;-78
2023/08/27 04:41:58;;;;;;;7.63;5.05;;;18.80;88.30;;;;;;5025041;28;20064;-78
2023/08/27 04:44:23;;;;;;;8.85;5.85;;;17.50;90.20;;;;;;5014761;28;20073;-78
2023/08/27 04:46:49;;;;;;;8.20;5.43;;;18.20;93.20;;;;;;5020431;28;20522;-78
2023/08/27 04:49:15;;;;;;;8.88;5.22;;;19.30;93.50;;;;;;5013518;28;20033;-78
2023/08/27 04:51:40;;;;;;;7.60;4.80;;;18.50;97.60;;;;;;5020248;28;20141;-78
2023/08/27 04:54:06;;;;;;;7.22;4.95;;;18.60;99.30;;;;;;5019940;28;20034;-78
2023/08/27 04:56:32;;;;;;;8.68;5.47;;;18.70;99.90;;;;;;5021135;28;20045;-78
2023/08/27 04:58:58;;;;;;;7.90;5.43;;;18.40;99.90;;;;;;5021032;28;20502;-79
2023/08/27 05:01:23;;;;;;;7.95;5.78;;;17.70;99.90;;;;;;5027156;28;20503;-79
2023/08/27 05:03:49;;;;;;;8.70;5.35;;;18.70;99.90;;;;;;5017267;28;20034;-79
2023/08/27 05:06:15;;;;;;;6.75;4.85;;;17.80;99.90;;;;;;5022718;28;20049;-79
2023/08/27 05:08:42;;;;;;;13.75;5.00;;;18.10;99.90;;;;;;5008325;28;20049;-79
2023/08/27 05:11:08;;;;;;;10.90;5.30;;;17.80;99.90;;;;;;5023485;28;20052;-79
2023/08/27 05:13:34;;;;;;;7.97;4.97;;;18.80;99.90;;;;;;5023209;28;20038;-79
2023/08/27 05:16:00;;;;;;;7.75;4.97;;;18.50;99.90;;;;;;5005747;28;20038;-79
2023/08/27 05:18:25;;;;;;;8.18;5.22;;;17.70;99.90;;;;;;5025515;28;20077;-79
2023/08/27 05:20:51;;;;;;;8.65;5.45;;;18.30;99.90;;;;;;5019481;28;20383;-79
2023/08/27 05:23:17;;;;;;;9.73;5.65;;;18.50;99.90;;;;;;5013918;28;20041;-79
2023/08/27 05:25:44;;;;;;;7.85;5.00;;;18.80;99.90;;;;;;5028784;28;20109;-78
2023/08/27 05:28:10;;;;;;;7.50;4.97;;;18.50;99.90;;;;;;5024038;28;20045;-79
2023/08/27 05:30:35;;;;;;;7.18;5.15;;;18.70;99.90;;;;;;5027289;28;20034;-79
2023/08/27 05:33:02;;;;;;;8.07;4.65;;;18.70;99.90;;;;;;5009866;28;20487;-79
2023/08/27 05:35:27;;;;;;;8.32;5.50;;;17.80;99.90;;;;;;5021904;28;20121;-79
2023/08/27 05:37:53;;;;;;;7.45;4.75;;;18.70;99.90;;;;;;5013486;28;20455;-79
2023/08/27 05:40:19;;;;;;;8.23;5.30;;;18.50;99.90;;;;;;5011785;28;20037;-79
2023/08/27 05:42:45;;;;;;;11.15;5.70;;;18.10;99.90;;;;;;5024844;28;20550;-78
2023/08/27 05:45:11;;;;;;;8.55;5.10;;;18.30;99.90;;;;;;5014521;28;20064;-79
2023/08/27 05:47:36;;;;;;;8.10;4.90;;;18.60;99.90;;;;;;5029407;28;20113;-79
2023/08/27 05:50:02;;;;;;;7.38;5.05;;;18.70;99.90;;;;;;5031064;28;20073;-79
2023/08/27 05:52:28;;;;;;;8.07;4.78;;;18.70;99.90;;;;;;4999568;28;20034;-79
2023/08/27 05:54:53;;;;;;;7.00;5.15;;;18.00;99.90;;;;;;5025704;28;20041;-79
2023/08/27 05:57:19;;;;;;;8.27;4.82;;;17.90;99.90;;;;;;5020680;28;20037;-79
2023/08/27 05:59:45;;;;;;;9.13;5.72;;;19.20;99.90;;;;;;5017423;28;20053;-79
2023/08/27 06:02:13;;;;;;;8.93;4.88;;;18.70;99.90;;;;;;5012385;28;20125;-79
2023/08/27 06:04:39;;;;;;;9.38;5.53;;;18.70;99.90;;;;;;5029594;28;20475;-79
2023/08/27 06:07:07;;;;;;;9.32;5.38;;;18.10;99.90;;;;;;5001079;28;20399;-79
2023/08/27 06:09:33;;;;;;;7.57;5.38;;;18.70;99.90;;;;;;5030110;28;20044;-79
2023/08/27 06:11:59;;;;;;;8.80;5.53;;;18.70;99.90;;;;;;5012540;28;20093;-79
2023/08/27 06:14:24;;;;;;;8.80;5.10;;;18.50;99.90;;;;;;5020871;28;20063;-80
2023/08/27 06:16:50;;;;;;;9.02;5.30;;;18.60;99.90;;;;;;4998647;28;20388;-80
2023/08/27 06:19:15;;;;;;;6.43;4.72;;;18.70;99.90;;;;;;5024348;28;20033;-80
2023/08/27 06:21:41;;;;;;;8.30;5.40;;;18.80;99.90;;;;;;5006039;28;20073;-79
2023/08/27 06:24:07;;;;;;;8.55;5.50;;;18.90;99.90;;;;;;5029412;28;20056;-79
2023/08/27 06:26:32;;;;;;;11.73;5.55;;;18.50;99.90;;;;;;5016057;28;20029;-79
2023/08/27 06:28:58;;;;;;;7.05;5.15;;;18.90;99.90;;;;;;5028689;28;20087;-79
2023/08/27 06:31:24;;;;;;;8.55;5.72;;;18.60;99.90;;;;;;5032669;28;20123;-79
2023/08/27 06:33:49;;;;;;;8.57;5.57;;;18.80;99.90;;;;;;5017918;28;20460;-79
2023/08/27 06:36:15;;;;;;;9.38;5.57;;;18.60;99.90;;;;;;5027901;28;20484;-79
2023/08/27 06:38:41;;;;;;;7.80;5.35;;;19.00;99.90;;;;;;5004534;28;20416;-80
2023/08/27 06:41:06;;;;;;;7.85;5.47;;;18.70;99.90;;;;;;5025466;28;20037;-80
2023/08/27 06:43:32;;;;;;;8.38;4.82;;;18.30;99.90;;;;;;5020837;28;20041;-80
2023/08/27 06:45:57;;;;;;;7.65;5.18;;;18.80;99.90;;;;;;5031140;28;20037;-80
2023/08/27 06:48:23;;;;;;;8.77;5.30;;;18.60;99.90;;;;;;5017894;28;20049;-80
2023/08/27 06:50:49;;;;;;;8.63;5.32;;;18.50;99.90;;;;;;5024257;28;20044;-80
2023/08/27 06:53:15;;;;;;;8.73;5.38;;;18.10;99.90;;;;;;5007623;28;20029;-79
2023/08/27 06:55:40;;;;;;;12.00;5.45;;;18.40;99.90;;;;;;5008766;28;20069;-79
2023/08/27 06:58:06;;;;;;;11.52;4.53;;;19.00;99.90;;;;;;5015848;28;20078;-78
2023/08/27 07:00:32;;;;;;;10.77;4.80;;;18.80;99.90;;;;;;5014076;28;20102;-77
2023/08/27 07:02:57;;;;;;;7.65;4.22;;;18.80;99.90;;;;;;5022402;28;20120;-78
2023/08/27 07:05:23;;;;;;;6.32;3.83;;;18.00;99.90;;;;;;5027791;28;20068;-79
2023/08/27 07:07:49;;;;;;;8.25;3.92;;;19.00;99.90;;;;;;5018182;28;20038;-78
2023/08/27 07:10:15;;;;;;;8.77;4.28;;;18.90;99.90;;;;;;5024923;28;20033;-78
2023/08/27 07:12:41;;;;;;;9.20;4.47;;;18.80;99.90;;;;;;5021754;28;20034;-78
2023/08/27 07:15:07;;;;;;;7.93;3.97;;;18.50;99.90;;;;;;5025879;28;20041;-79
2023/08/27 07:17:33;;;;;;;13.45;5.00;;;18.70;99.90;;;;;;5019728;28;20047;-79
2023/08/27 07:20:03;;;;;;;11.85;5.55;;;18.80;99.90;;;;;;5028341;28;20049;-79
2023/08/27 07:22:29;;;;;;;10.05;5.07;;;19.10;99.90;;;;;;5007993;28;20072;-79
2023/08/27 07:24:55;;;;;;;9.30;4.30;;;18.80;99.90;;;;;;5017551;28;20042;-78
2023/08/27 07:27:21;;;;;;;11.18;4.63;;;18.60;99.90;;;;;;5020602;28;20087;-78
2023/08/27 07:29:47;;;;;;;10.00;4.35;;;18.90;99.90;;;;;;5006774;28;20132;-79
2023/08/27 07:32:12;;;;;;;9.45;4.07;;;18.70;99.90;;;;;;5022075;28;20029;-79
2023/08/27 07:34:38;;;;;;;7.95;3.60;;;18.70;99.90;;;;;;5026432;28;20030;-79
2023/08/27 07:37:04;;;;;;;8.48;3.45;;;18.80;99.90;;;;;;5006788;28;20043;-78
2023/08/27 07:39:30;;;;;;;8.45;3.65;;;19.00;99.90;;;;;;5017061;28;20029;-78
2023/08/27 07:41:55;;;;;;;7.93;3.35;;;18.80;99.90;;;;;;5024482;28;20120;-80
2023/08/27 07:44:21;;;;;;;5.47;2.30;;;18.70;99.90;;;;;;5019013;28;20500;-79
2023/08/27 07:46:47;;;;;;;6.00;2.30;;;18.70;99.90;;;;;;5006842;28;20507;-78
2023/08/27 07:49:12;;;;;;;9.07;2.10;;;18.80;99.90;;;;;;5018628;28;20041;-79
2023/08/27 07:51:38;;;;;;;4.85;1.85;;;18.70;99.90;;;;;;5021818;28;20354;-79
2023/08/27 07:54:04;;;;;;;5.60;2.00;;;18.60;99.90;;;;;;5011261;28;20025;-78
2023/08/27 07:56:29;;;;;;;4.45;1.50;;;18.50;99.90;;;;;;5026669;28;20089;-78
2023/08/27 07:58:55;;;;;;;3.88;1.30;;;18.70;99.90;;;;;;5029763;28;20084;-78
2023/08/27 08:01:21;;;;;;;3.92;1.23;;;18.80;99.90;;;;;;5030219;28;20041;-78
2023/08/27 08:03:47;;;;;;;3.13;1.15;;;19.00;99.90;;;;;;5015071;28;20041;-79
2023/08/27 08:06:13;;;;;;;3.33;1.17;;;19.00;99.90;;;;;;5030898;28;20041;-78
2023/08/27 08:08:40;;;;;;;2.70;0.95;;;18.70;99.90;;;;;;5026719;28;20516;-78
2023/08/27 08:11:05;;;;;;;3.92;0.90;;;18.30;99.90;;;;;;5031471;28;20076;-79
2023/08/27 08:13:36;;;;;;;2.45;0.85;;;19.00;99.90;;;;;;5031247;28;20616;-79
2023/08/27 08:16:02;;;;;;;3.22;1.02;;;18.70;99.90;;;;;;5025949;28;20044;-79
2023/08/27 08:18:28;;;;;;;4.38;1.00;;;19.10;99.90;;;;;;5031354;28;20053;-79
2023/08/27 08:20:56;;;;;;;3.42;0.90;;;18.60;99.30;;;;;;5031813;28;20388;-78
2023/08/27 08:23:22;;;;;;;2.38;0.88;;;18.10;82.30;;;;;;5031449;28;20048;-79
2023/08/27 08:25:51;;;;;;;2.75;0.98;;;19.00;55.00;;;;;;5031665;28;20160;-79
2023/08/27 08:28:17;;;;;;;2.13;0.80;;;18.90;41.20;;;;;;5005608;28;20082;-79
2023/08/27 08:30:48;;;;;;;3.03;1.00;;;18.60;19.70;;;;;;5005282;28;20721;-79
2023/08/27 08:33:15;;;;;;;2.63;0.98;;;19.10;15.50;;;;;;5030382;28;20045;-79
2023/08/27 08:35:41;;;;;;;1.95;0.70;;;18.90;4.50;;;;;;5008219;28;20087;-79
2023/08/27 08:38:07;;;;;;;2.20;1.10;;;18.30;1.00;;;;;;5031163;28;20037;-78
2023/08/27 08:40:56;;;;;;;1.90;0.80;;;18.70;1.00;;;;;;5014875;28;20069;-79
2023/08/27 08:43:27;;;;;;;2.30;1.10;;;18.80;1.00;;;;;;5028333;28;20073;-79
2023/08/27 08:46:05;;;;;;;1.60;0.80;;;18.00;1.00;;;;;;5013987;28;20409;-79
2023/08/27 08:48:38;;;;;;;1.92;0.70;;;18.60;1.00;;;;;;5011163;28;20067;-78
2023/08/27 08:51:05;;;;;;;2.45;0.80;;;18.40;1.00;;;;;;5026578;28;20124;-78
2023/08/27 08:53:36;;;;;;;2.42;0.68;;;18.90;1.00;;;;;;5031748;28;20458;-78
2023/08/27 08:56:05;;;;;;;2.63;0.80;;;17.80;1.00;;;;;;5011725;28;20395;-78
2023/08/27 08:58:35;;;;;;;2.25;0.80;;;18.60;1.00;;;;;;5026716;28;20050;-78
2023/08/27 09:01:02;;;;;;;1.55;0.77;;;18.00;1.00;;;;;;5027799;28;20505;-78
2023/08/27 09:03:30;;;;;;;3.15;0.90;;;18.90;1.00;;;;;;5030734;28;20113;-79
2023/08/27 09:05:56;;;;;;;1.58;0.70;;;18.00;1.00;;;;;;5031049;28;20446;-78
2023/08/27 09:08:22;;;;;;;1.67;0.70;;;18.70;1.00;;;;;;5031190;28;20046;-78
2023/08/27 09:10:49;;;;;;;3.28;0.90;;;18.70;1.00;;;;;;5013291;28;20042;-78
2023/08/27 09:13:21;;;;;;;3.13;0.82;;;18.50;1.00;;;;;;5034339;28;20029;-78
2023/08/27 09:15:48;;;;;;;2.80;0.90;;;18.60;1.00;;;;;;5033291;28;20033;-78
2023/08/27 09:18:14;;;;;;;2.20;0.88;;;18.70;1.00;;;;;;5018460;28;20053;-78
2023/08/27 09:20:43;;;;;;;2.28;0.90;;;18.40;1.00;;;;;;5034564;28;20103;-78
2023/08/27 09:23:10;;;;;;;2.85;1.10;;;18.60;1.00;;;;;;5014457;28;20506;-78
2023/08/27 09:25:39;;;;;;;2.72;0.90;;;18.70;1.00;;;;;;5028956;28;20095;-78
2023/08/27 09:28:09;;;;;;;2.75;0.95;;;18.50;1.00;;;;;;5037658;28;20125;-78
2023/08/27 09:30:34;;;;;;;3.88;0.95;;;17.70;1.00;;;;;;5033741;28;20116;-78
2023/08/27 09:33:02;;;;;;;2.97;1.00;;;18.80;1.00;;;;;;5024404;28;20760;-78
2023/08/27 09:35:41;;;;;;;2.75;0.90;;;17.80;1.00;;;;;;5034003;28;20657;-78
2023/08/27 09:38:11;;;;;;;2.55;0.90;;;18.80;1.00;;;;;;5034213;28;20060;-78
2023/08/27 09:40:37;;;;;;;2.80;0.90;;;18.50;1.00;;;;;;5034382;28;20053;-78
2023/08/27 09:43:04;;;;;;;4.07;1.13;;;17.70;1.00;;;;;;5033571;28;20056;-78
2023/08/27 09:45:30;;;;;;;3.80;1.15;;;17.70;1.00;;;;;;5016245;28;20125;-78
2023/08/27 09:48:00;;;;;;;3.67;1.27;;;18.80;1.00;;;;;;5030776;28;20515;-78
2023/08/27 09:50:28;;;;;;;4.15;1.40;;;18.60;1.00;;;;;;5027139;28;20042;-78
2023/08/27 09:53:07;;;;;;;3.25;1.10;;;18.70;1.00;;;;;;5025304;28;20087;-78
2023/08/27 09:55:34;;;;;;;3.42;1.10;;;18.60;1.00;;;;;;5025706;28;20499;-78
2023/08/27 09:58:01;;;;;;;4.13;1.10;;;18.70;1.00;;;;;;5027494;28;20037;-78
2023/08/27 10:00:29;;;;;;;3.15;1.20;;;17.80;1.00;;;;;;5029014;28;20505;-78
2023/08/27 10:02:56;;;;;;;4.72;1.42;;;18.30;1.00;;;;;;5026749;28;20044;-79
2023/08/27 10:05:28;;;;;;;2.78;1.13;;;18.70;1.00;;;;;;5022268;28;20056;-78
2023/08/27 10:08:04;;;;;;;3.95;1.40;;;18.50;1.00;;;;;;5013961;28;20053;-79
2023/08/27 10:10:33;;;;;;;4.03;1.20;;;18.80;1.00;;;;;;5023738;28;20056;-79
2023/08/27 10:13:00;;;;;;;5.30;1.30;;;18.90;1.30;;;;;;5032037;28;20491;-79
2023/08/27 10:15:27;;;;;;;3.70;1.20;;;17.50;9.70;;;;;;5026925;28;20727;-79
2023/08/27 10:17:53;;;;;;;4.65;1.30;;;18.70;11.60;;;;;;5031527;28;20069;-79
2023/08/27 10:20:20;;;;;;;3.78;1.42;;;18.50;18.00;;;;;;5005456;28;20053;-79
2023/08/27 10:22:50;;;;;;;4.20;1.60;;;18.60;34.50;;;;;;5025121;28;20048;-79
2023/08/27 10:25:19;;;;;;;3.88;1.50;;;18.60;39.30;;;;;;5007856;28;20600;-79
2023/08/27 10:27:47;;;;;;;4.65;1.33;;;19.00;36.30;;;;;;5025894;28;20466;-79
2023/08/27 10:30:18;;;;;;;4.20;1.30;;;18.10;33.30;;;;;;5032212;28;20049;-79
2023/08/27 10:32:45;;;;;;;3.92;1.20;;;17.90;26.90;;;;;;5012165;28;20106;-79
2023/08/27 10:35:11;;;;;;;4.60;1.70;;;17.80;21.10;;;;;;5007357;28;20064;-79
2023/08/27 10:37:44;;;;;;;3.97;1.25;;;18.40;20.70;;;;;;5011347;28;20120;-80
2023/08/27 10:40:12;;;;;;;5.25;1.20;;;18.70;29.50;;;;;;5029762;28;20499;-80
2023/08/27 10:42:38;;;;;;;3.45;1.13;;;17.60;29.70;;;;;;5027309;28;20530;-80
2023/08/27 10:45:15;;;;;;;5.80;1.60;;;17.80;25.30;;;;;;5023854;28;20037;-80
2023/08/27 10:47:42;;;;;;;3.75;1.50;;;18.50;29.90;;;;;;5008164;28;20046;-79
2023/08/27 10:50:09;;;;;;;3.58;1.30;;;18.40;27.40;;;;;;5029058;28;20049;-79
2023/08/27 10:52:52;;;;;;;5.50;1.30;;;18.60;26.50;;;;;;5032696;28;20037;-79
2023/08/27 10:55:34;;;;;;;3.95;1.30;;;18.20;49.20;;;;;;5007564;28;20080;-79
2023/08/27 10:58:20;;;;;;;3.80;1.20;;;19.20;49.00;;;;;;5018355;28;20515;-79
2023/08/27 11:01:06;;;;;;;3.47;1.10;;;18.30;75.50;;;;;;5023150;28;20083;-79
2023/08/27 11:03:55;;;;;;;3.85;1.15;;;18.20;39.60;;;;;;5032003;28;20065;-80
2023/08/27 11:06:44;;;;;;;4.18;1.10;;;18.80;23.30;;;;;;5030636;28;20065;-79
2023/08/27 11:09:24;;;;;;;4.93;1.30;;;18.50;1.00;;;;;;5027677;28;20663;-80
2023/08/27 11:11:55;;;;;;;4.20;1.17;;;18.60;1.00;;;;;;5024667;28;20037;-79
2023/08/27 11:14:22;;;;;;;4.60;1.20;;;17.80;1.00;;;;;;5031123;28;20041;-79
2023/08/27 11:17:09;;;;;;;2.65;0.90;;;18.10;1.00;;;;;;5031674;28;20522;-79
2023/08/27 11:19:37;;;;;;;3.45;1.00;;;18.70;1.00;;;;;;5029341;28;20499;-79
2023/08/27 11:22:09;;;;;;;4.07;1.10;;;18.80;1.00;;;;;;5020072;28;20042;-79
2023/08/27 11:24:46;;;;;;;4.32;1.00;;;18.30;1.00;;;;;;5026419;28;20048;-80
2023/08/27 11:27:15;;;;;;;4.80;1.10;;;18.40;1.00;;;;;;5013501;28;20044;-80
2023/08/27 11:29:43;;;;;;;4.53;1.02;;;18.70;1.00;;;;;;5013513;28;20053;-79
2023/08/27 11:32:09;;;;;;;4.60;1.02;;;18.40;1.00;;;;;;5029872;28;20065;-79
2023/08/27 11:34:39;;;;;;;4.30;1.10;;;18.00;1.00;;;;;;5020778;28;20038;-78
2023/08/27 11:37:06;;;;;;;3.80;1.27;;;17.60;1.00;;;;;;5007839;28;20041;-79
2023/08/27 11:39:33;;;;;;;3.80;1.00;;;17.60;1.00;;;;;;5029460;28;20076;-79
2023/08/27 11:41:59;;;;;;;4.35;1.02;;;18.30;1.00;;;;;;5013206;28;20141;-79
2023/08/27 11:44:25;;;;;;;3.60;1.00;;;18.50;1.00;;;;;;5013812;28;20068;-79
2023/08/27 11:46:51;;;;;;;4.00;0.90;;;18.70;1.00;;;;;;5027969;28;20501;-79
2023/08/27 11:49:30;;;;;;;2.80;1.00;;;18.90;1.00;;;;;;5023443;28;20104;-78
2023/08/27 11:51:58;;;;;;;3.80;0.90;;;18.50;8.40;;;;;;5010106;28;20041;-78
2023/08/27 11:54:28;;;;;;;3.75;1.08;;;18.50;19.40;;;;;;5021888;28;20088;-78
2023/08/27 11:56:56;;;;;;;3.08;0.90;;;18.40;13.50;;;;;;5029846;28;20094;-77
2023/08/27 11:59:25;;;;;;;3.78;0.95;;;18.40;38.20;;;;;;5021148;28;20751;-77
2023/08/27 12:01:51;;;;;;;3.47;1.10;;;17.60;38.50;;;;;;5021223;28;20122;-77
2023/08/27 12:04:16;;;;;;;4.28;0.90;;;18.00;29.70;;;;;;5027365;28;20045;-78
2023/08/27 12:07:10;;;;;;;4.20;1.00;;;18.50;21.00;;;;;;5020602;28;20521;-81
2023/08/27 12:09:36;;;;;;;2.45;0.88;;;17.70;5.20;;;;;;5028474;28;20041;-77
2023/08/27 12:12:04;;;;;;;2.97;1.00;;;18.70;16.30;;;;;;5009269;28;20049;-77
2023/08/27 12:14:31;;;;;;;2.78;0.82;;;18.30;12.10;;;;;;5010739;28;20049;-77
2023/08/27 12:17:07;;;;;;;2.35;0.80;;;20.60;10.10;;;;;;5011817;28;20103;-77
2023/08/27 12:19:33;;;;;;;3.90;1.08;;;18.70;18.20;;;;;;5026193;28;20068;-76
2023/08/27 12:21:59;;;;;;;3.10;0.88;;;18.50;14.30;;;;;;5016138;28;20069;-77
2023/08/27 12:24:44;;;;;;;2.03;0.80;;;18.70;22.00;;;;;;5022323;28;20072;-76
2023/08/27 12:27:20;;;;;;;4.13;0.90;;;18.00;23.60;;;;;;5005875;28;20047;-76
2023/08/27 12:29:51;;;;;;;2.90;0.90;;;18.40;4.40;;;;;;5027946;28;20087;-77
2023/08/27 12:32:18;;;;;;;3.60;1.20;;;18.60;6.80;;;;;;5028644;28;20072;-76
2023/08/27 12:34:46;;;;;;;2.85;1.00;;;18.50;6.20;;;;;;5006434;28;20037;-77
2023/08/27 12:37:13;;;;;;;4.00;1.00;;;18.00;6.60;;;;;;5007023;28;20069;-76
2023/08/27 12:39:39;;;;;;;3.80;0.98;;;18.40;10.10;;;;;;5028139;28;20044;-76
2023/08/27 12:42:06;;;;;;;3.65;0.90;;;18.80;14.80;;;;;;5011443;28;20044;-76
2023/08/27 12:44:36;;;;;;;3.08;1.10;;;17.80;12.90;;;;;;5024683;28;20042;-76
2023/08/27 12:47:02;;;;;;;3.42;0.90;;;18.40;1.00;;;;;;5009520;28;20439;-76
2023/08/27 12:49:28;;;;;;;4.00;1.10;;;18.70;8.30;;;;;;5029109;28;20045;-77
2023/08/27 12:51:55;;;;;;;5.22;1.13;;;18.80;11.10;;;;;;5028841;28;20129;-77
2023/08/27 12:54:20;;;;;;;4.45;1.20;;;18.60;14.30;;;;;;5023152;28;20127;-76